Time;durP1;ratioP1;P1;durP2;ratioP2;P2;SDS_P1;SDS_P2;PMS_P1;PMS_P2;Temp;Humidity;BMP_temperature;BMP_pressure;BME280_temperature;BME280_humidity;BME280_pressure;Samples;Min_cycle;Max_cycle;Signal;HPM_P1;HPM_P2
2021/04/29 00:01:13;;;;;;;20.00;18.20;;;12.00;85.90;;;;;;5041013;28;20891;-73
2021/04/29 00:03:39;;;;;;;19.60;17.70;;;12.00;87.80;;;;;;5040496;28;20478;-72
2021/04/29 00:06:06;;;;;;;19.33;17.43;;;11.90;90.20;;;;;;5041899;28;20495;-73
2021/04/29 00:08:34;;;;;;;25.23;17.13;;;11.80;91.60;;;;;;5042084;28;20824;-73
2021/04/29 00:11:02;;;;;;;19.27;17.60;;;11.60;93.60;;;;;;5041551;28;20476;-73
2021/04/29 00:13:28;;;;;;;17.97;16.57;;;11.60;95.70;;;;;;5039850;28;20517;-72
2021/04/29 00:15:55;;;;;;;23.67;17.83;;;11.50;97.40;;;;;;5041108;28;20546;-73
2021/04/29 00:18:22;;;;;;;19.60;17.83;;;11.40;98.90;;;;;;5040917;28;20487;-72
2021/04/29 00:20:54;;;;;;;19.20;17.40;;;11.30;99.90;;;;;;5042036;28;20472;-73
2021/04/29 00:23:21;;;;;;;18.60;17.20;;;11.20;99.90;;;;;;5043326;28;20460;-74
2021/04/29 00:25:48;;;;;;;18.90;17.10;;;11.10;99.90;;;;;;5041069;28;20468;-72
2021/04/29 00:28:15;;;;;;;18.37;16.80;;;11.10;99.90;;;;;;5041007;28;20511;-74
2021/04/29 00:30:41;;;;;;;19.23;17.70;;;11.10;99.90;;;;;;5040985;28;20489;-73
2021/04/29 00:33:08;;;;;;;17.73;16.43;;;11.20;99.90;;;;;;5039711;28;20497;-72
2021/04/29 00:35:35;;;;;;;17.20;15.80;;;11.20;99.90;;;;;;5042818;28;20969;-72
2021/04/29 00:38:01;;;;;;;17.23;15.83;;;11.20;99.90;;;;;;5041100;28;20487;-73
2021/04/29 00:40:28;;;;;;;16.77;15.37;;;11.10;99.90;;;;;;5039106;28;20480;-73
2021/04/29 00:42:56;;;;;;;16.27;15.10;;;11.10;99.90;;;;;;5039638;28;20525;-73
2021/04/29 00:45:22;;;;;;;18.33;16.70;;;11.10;99.90;;;;;;5040002;28;20467;-73
2021/04/29 00:47:50;;;;;;;17.67;16.47;;;11.00;99.90;;;;;;5040899;28;20962;-73
2021/04/29 00:50:19;;;;;;;16.97;15.73;;;11.00;99.90;;;;;;5041766;28;20836;-73
2021/04/29 00:52:45;;;;;;;16.70;15.60;;;11.00;99.90;;;;;;5044152;28;20459;-73
2021/04/29 00:55:12;;;;;;;17.60;16.00;;;11.10;99.90;;;;;;5045221;28;20629;-73
2021/04/29 00:57:38;;;;;;;17.90;16.50;;;11.10;99.90;;;;;;5044978;28;20529;-73
2021/04/29 01:00:08;;;;;;;17.10;15.90;;;11.10;99.90;;;;;;5045035;28;21128;-73
2021/04/29 01:02:37;;;;;;;29.70;17.47;;;11.10;99.90;;;;;;5046479;28;20491;-72
2021/04/29 01:05:09;;;;;;;18.30;16.90;;;11.00;99.90;;;;;;5046058;28;20910;-73
2021/04/29 01:07:43;;;;;;;19.90;17.77;;;11.00;99.90;;;;;;5044866;28;20471;-73
2021/04/29 01:10:14;;;;;;;19.23;17.37;;;11.00;99.90;;;;;;5044292;28;20555;-74
2021/04/29 01:12:48;;;;;;;18.17;16.87;;;10.90;99.90;;;;;;5042905;28;20459;-73
2021/04/29 01:15:17;;;;;;;19.37;17.67;;;10.90;99.90;;;;;;5044681;28;20450;-72
2021/04/29 01:17:47;;;;;;;17.80;16.50;;;10.90;99.90;;;;;;5044450;28;20487;-73
2021/04/29 01:20:18;;;;;;;18.97;17.57;;;11.00;99.90;;;;;;5045031;28;21051;-73
2021/04/29 01:22:55;;;;;;;18.73;16.93;;;11.00;99.90;;;;;;5045062;28;20468;-74
2021/04/29 01:25:27;;;;;;;20.13;18.30;;;11.00;99.90;;;;;;5042229;28;20459;-73
2021/04/29 01:27:54;;;;;;;18.23;16.83;;;11.10;99.90;;;;;;5044451;28;20471;-72
2021/04/29 01:30:21;;;;;;;18.67;17.23;;;11.20;99.90;;;;;;5043947;28;20475;-72
2021/04/29 01:32:48;;;;;;;19.27;17.57;;;11.20;99.90;;;;;;5045006;28;20560;-73
2021/04/29 01:35:15;;;;;;;21.40;17.33;;;11.30;99.90;;;;;;5043791;28;20554;-72
2021/04/29 01:37:42;;;;;;;18.97;17.47;;;11.30;99.90;;;;;;5045140;28;20532;-73
2021/04/29 01:40:11;;;;;;;18.83;17.37;;;11.40;99.90;;;;;;5042436;28;20739;-71
2021/04/29 01:42:39;;;;;;;19.30;17.67;;;11.50;99.90;;;;;;5043669;28;20551;-74
2021/04/29 01:45:08;;;;;;;19.60;17.63;;;11.50;99.90;;;;;;5043901;28;20468;-73
2021/04/29 01:47:36;;;;;;;19.37;17.93;;;11.60;99.90;;;;;;5040868;28;20467;-72
2021/04/29 01:50:05;;;;;;;19.80;18.03;;;11.70;99.90;;;;;;5044988;28;20460;-72
2021/04/29 01:52:32;;;;;;;19.47;18.07;;;11.70;99.90;;;;;;5043669;28;20463;-73
2021/04/29 01:55:00;;;;;;;20.00;18.30;;;11.70;99.90;;;;;;5043975;28;20525;-73
2021/04/29 01:57:27;;;;;;;20.23;18.57;;;11.70;99.90;;;;;;5042671;28;20487;-73
2021/04/29 01:59:54;;;;;;;19.27;17.97;;;11.80;99.90;;;;;;5044892;28;20459;-71
2021/04/29 02:02:23;;;;;;;20.40;18.73;;;11.80;99.90;;;;;;5043818;28;20464;-73
2021/04/29 02:04:50;;;;;;;21.93;18.70;;;11.80;99.90;;;;;;5043628;28;20468;-73
2021/04/29 02:07:16;;;;;;;17.63;16.37;;;11.80;99.90;;;;;;5043680;28;20470;-72
2021/04/29 02:09:42;;;;;;;20.53;18.90;;;11.80;99.90;;;;;;5041129;28;21028;-73
2021/04/29 02:12:11;;;;;;;20.90;19.20;;;11.80;99.90;;;;;;5041598;28;20510;-72
2021/04/29 02:14:42;;;;;;;20.63;18.60;;;11.80;99.90;;;;;;5044259;28;20469;-73
2021/04/29 02:17:13;;;;;;;19.87;18.33;;;11.80;99.90;;;;;;5043687;28;20947;-75
2021/04/29 02:19:43;;;;;;;21.20;19.30;;;11.80;99.90;;;;;;5042111;28;20463;-73
2021/04/29 02:22:11;;;;;;;20.37;18.37;;;11.80;99.90;;;;;;5042712;28;20521;-72
2021/04/29 02:24:39;;;;;;;20.50;18.90;;;11.90;99.90;;;;;;5043274;28;20467;-72
2021/04/29 02:27:07;;;;;;;20.30;18.63;;;11.80;99.90;;;;;;5043577;28;20494;-75
2021/04/29 02:29:34;;;;;;;21.47;19.37;;;11.90;99.90;;;;;;5044256;28;20475;-74
2021/04/29 02:32:01;;;;;;;20.57;18.43;;;11.80;99.90;;;;;;5044579;28;20459;-73
2021/04/29 02:34:27;;;;;;;20.87;18.87;;;11.90;99.90;;;;;;5042789;28;20873;-74
2021/04/29 02:36:55;;;;;;;20.73;18.73;;;11.80;99.90;;;;;;5041865;28;20490;-73
2021/04/29 02:39:22;;;;;;;21.40;19.53;;;11.80;99.90;;;;;;5043011;28;20483;-73
2021/04/29 02:41:48;;;;;;;20.97;19.20;;;11.70;99.90;;;;;;5044609;28;20468;-73
2021/04/29 02:44:15;;;;;;;19.97;18.00;;;11.70;99.90;;;;;;5043916;28;20466;-73
2021/04/29 02:46:42;;;;;;;20.83;18.90;;;11.70;99.90;;;;;;5043040;28;20506;-72
2021/04/29 02:49:10;;;;;;;21.40;19.30;;;11.70;99.90;;;;;;5042891;28;20464;-72
2021/04/29 02:51:38;;;;;;;20.97;17.90;;;11.70;99.90;;;;;;5042510;28;20478;-74
2021/04/29 02:54:07;;;;;;;19.47;17.77;;;11.50;99.90;;;;;;5038678;28;20464;-73
2021/04/29 02:56:39;;;;;;;20.10;18.40;;;11.50;99.90;;;;;;5043049;28;20536;-73
2021/04/29 02:59:05;;;;;;;20.77;18.87;;;11.50;99.90;;;;;;5043131;28;20821;-72
2021/04/29 03:01:34;;;;;;;18.57;16.97;;;11.50;99.90;;;;;;5042062;28;20518;-73
2021/04/29 03:04:00;;;;;;;19.30;17.47;;;11.50;99.90;;;;;;5042587;28;20468;-72
2021/04/29 03:06:27;;;;;;;19.23;17.50;;;11.40;99.90;;;;;;5042449;28;20467;-74
2021/04/29 03:08:53;;;;;;;18.90;17.10;;;11.50;99.90;;;;;;5041156;28;20488;-73
2021/04/29 03:11:20;;;;;;;20.43;17.33;;;11.40;99.90;;;;;;5044234;28;20886;-72
2021/04/29 03:13:47;;;;;;;19.77;17.87;;;11.50;99.90;;;;;;5042440;28;20464;-73
2021/04/29 03:16:14;;;;;;;25.80;18.33;;;11.40;99.90;;;;;;5042640;28;20508;-72
2021/04/29 03:18:40;;;;;;;18.67;17.07;;;11.30;99.90;;;;;;5042248;28;20495;-74
2021/04/29 03:21:06;;;;;;;21.20;19.10;;;11.30;99.90;;;;;;5042544;28;20523;-72
2021/04/29 03:23:33;;;;;;;21.53;19.83;;;11.20;99.90;;;;;;5041914;28;20518;-72
2021/04/29 03:26:00;;;;;;;21.07;19.10;;;11.30;99.90;;;;;;5044717;28;20464;-73
2021/04/29 03:28:28;;;;;;;19.43;17.70;;;11.20;99.90;;;;;;5041340;28;20917;-72
2021/04/29 03:30:56;;;;;;;21.37;19.37;;;11.10;99.90;;;;;;5041211;28;21070;-72
2021/04/29 03:33:22;;;;;;;21.87;19.93;;;11.00;99.90;;;;;;5041894;28;20989;-72
2021/04/29 03:35:48;;;;;;;18.93;17.20;;;11.00;99.90;;;;;;5039147;28;20460;-73
2021/04/29 03:38:15;;;;;;;22.57;20.50;;;10.90;99.90;;;;;;5041664;28;20503;-72
2021/04/29 03:40:41;;;;;;;25.07;21.93;;;10.80;99.90;;;;;;5041664;28;20459;-72
2021/04/29 03:43:07;;;;;;;22.20;20.00;;;10.70;99.90;;;;;;5041526;28;20471;-72
2021/04/29 03:45:35;;;;;;;22.60;20.60;;;10.70;99.90;;;;;;5041622;28;20463;-74
2021/04/29 03:48:02;;;;;;;20.97;19.07;;;10.60;99.90;;;;;;5041919;28;20493;-72
2021/04/29 03:50:29;;;;;;;23.40;21.13;;;10.60;99.90;;;;;;5042331;28;20482;-72
2021/04/29 03:52:55;;;;;;;24.83;19.43;;;10.60;99.90;;;;;;5041941;28;20451;-73
2021/04/29 03:55:22;;;;;;;21.63;19.33;;;10.50;99.90;;;;;;5041824;28;20463;-72
2021/04/29 03:57:48;;;;;;;20.23;18.23;;;10.50;99.90;;;;;;5041691;28;20471;-73
2021/04/29 04:00:15;;;;;;;20.97;19.07;;;10.50;99.90;;;;;;5041334;28;20533;-72
2021/04/29 04:02:44;;;;;;;20.30;18.60;;;10.50;99.90;;;;;;5041119;28;21006;-73
2021/04/29 04:05:11;;;;;;;24.00;21.57;;;10.50;99.90;;;;;;5041289;28;20546;-73
2021/04/29 04:07:37;;;;;;;24.33;22.00;;;10.60;99.90;;;;;;5039982;28;20496;-73
2021/04/29 04:10:07;;;;;;;23.77;21.17;;;10.60;99.90;;;;;;5040879;28;20484;-74
2021/04/29 04:12:33;;;;;;;24.47;22.03;;;10.60;99.90;;;;;;5041123;28;20452;-72
2021/04/29 04:15:00;;;;;;;23.87;20.20;;;10.60;99.90;;;;;;5041872;28;20738;-73
2021/04/29 04:17:26;;;;;;;24.23;21.90;;;10.50;99.90;;;;;;5041057;28;20510;-71
2021/04/29 04:19:53;;;;;;;27.87;24.50;;;10.50;99.90;;;;;;5042880;28;20454;-73
2021/04/29 04:22:19;;;;;;;26.03;23.53;;;10.40;99.90;;;;;;5039381;28;20533;-73
2021/04/29 04:24:46;;;;;;;26.37;23.60;;;10.40;99.90;;;;;;5040799;28;20829;-73
2021/04/29 04:27:12;;;;;;;24.40;22.10;;;10.30;99.90;;;;;;5040219;28;20497;-72
2021/04/29 04:29:39;;;;;;;27.23;24.30;;;10.30;99.90;;;;;;5041330;28;20476;-72
2021/04/29 04:32:06;;;;;;;27.40;24.77;;;10.20;99.90;;;;;;5042325;28;20472;-73
2021/04/29 04:34:33;;;;;;;28.70;25.30;;;10.20;99.90;;;;;;5041577;28;20467;-73
2021/04/29 04:37:00;;;;;;;27.00;23.97;;;10.10;99.90;;;;;;5040195;28;20478;-72
2021/04/29 04:39:27;;;;;;;27.77;24.93;;;10.00;99.90;;;;;;5038409;28;20488;-72
2021/04/29 04:41:53;;;;;;;33.23;27.07;;;10.00;99.90;;;;;;5040903;28;20470;-72
2021/04/29 04:44:20;;;;;;;28.80;25.83;;;9.90;99.90;;;;;;5041895;28;20459;-73
2021/04/29 04:46:46;;;;;;;29.33;26.43;;;9.90;99.90;;;;;;5042195;28;20459;-72
2021/04/29 04:49:13;;;;;;;31.73;27.57;;;9.90;99.90;;;;;;5040525;28;21005;-72
2021/04/29 04:51:39;;;;;;;32.07;25.93;;;9.80;99.90;;;;;;5039122;28;20950;-73
2021/04/29 04:54:06;;;;;;;36.30;28.60;;;9.70;99.90;;;;;;5040842;28;20466;-74
2021/04/29 04:56:33;;;;;;;30.37;27.20;;;9.70;99.90;;;;;;5040548;28;20458;-73
2021/04/29 04:59:00;;;;;;;32.43;28.80;;;9.60;99.90;;;;;;5041424;28;21119;-71
2021/04/29 05:01:27;;;;;;;34.50;29.37;;;9.60;99.90;;;;;;5039058;28;20855;-74
2021/04/29 05:03:54;;;;;;;30.63;27.33;;;9.40;99.90;;;;;;5041256;28;20469;-72
2021/04/29 05:06:21;;;;;;;34.07;29.17;;;9.40;99.90;;;;;;5041296;28;20472;-73
2021/04/29 05:08:47;;;;;;;41.20;32.53;;;9.30;99.90;;;;;;5040302;28;20569;-75
2021/04/29 05:11:14;;;;;;;37.37;28.27;;;9.20;99.90;;;;;;5040674;28;20474;-73
2021/04/29 05:13:41;;;;;;;37.77;33.67;;;9.10;99.90;;;;;;5040618;28;20467;-72
2021/04/29 05:16:07;;;;;;;35.27;31.17;;;9.10;99.90;;;;;;5037054;28;20958;-73
2021/04/29 05:18:34;;;;;;;44.27;33.10;;;9.10;99.90;;;;;;5040796;28;20459;-73
2021/04/29 05:21:00;;;;;;;38.70;33.03;;;9.10;99.90;;;;;;5040535;28;20470;-75
2021/04/29 05:23:27;;;;;;;39.47;33.17;;;9.10;99.90;;;;;;5040424;28;20499;-72
2021/04/29 05:25:53;;;;;;;37.40;31.27;;;9.20;99.90;;;;;;5040356;28;20485;-74
2021/04/29 05:28:20;;;;;;;36.00;32.10;;;9.20;99.90;;;;;;5040235;28;20549;-74
2021/04/29 05:30:47;;;;;;;38.73;33.63;;;9.40;99.90;;;;;;5039414;28;20547;-73
2021/04/29 05:33:13;;;;;;;37.80;28.87;;;9.30;99.90;;;;;;5040111;28;20498;-73
2021/04/29 05:35:40;;;;;;;37.70;33.30;;;9.30;99.90;;;;;;5040601;28;20466;-72
2021/04/29 05:38:06;;;;;;;42.33;33.40;;;9.30;99.90;;;;;;5043064;28;20505;-72
2021/04/29 05:40:33;;;;;;;40.70;32.50;;;9.50;99.90;;;;;;5044499;28;20482;-74
2021/04/29 05:43:00;;;;;;;34.90;28.63;;;9.50;99.90;;;;;;5042373;28;20814;-72
2021/04/29 05:45:27;;;;;;;38.90;33.10;;;9.50;99.90;;;;;;5043383;28;20958;-73
2021/04/29 05:47:54;;;;;;;39.10;34.40;;;9.50;99.90;;;;;;5043906;28;20535;-73
2021/04/29 05:50:20;;;;;;;33.30;29.27;;;9.50;99.90;;;;;;5037633;28;20473;-73
2021/04/29 05:52:46;;;;;;;42.90;33.97;;;9.60;99.90;;;;;;5038259;28;20471;-73
2021/04/29 05:55:13;;;;;;;32.33;28.13;;;9.60;99.90;;;;;;5041243;28;20544;-72
2021/04/29 05:57:41;;;;;;;37.47;33.33;;;9.60;99.90;;;;;;5044718;28;20486;-73
2021/04/29 06:00:08;;;;;;;35.93;31.43;;;9.60;99.90;;;;;;5043204;28;20474;-73
2021/04/29 06:02:36;;;;;;;35.30;30.33;;;9.60;99.90;;;;;;5040181;28;21028;-73
2021/04/29 06:05:03;;;;;;;40.13;33.90;;;9.70;99.90;;;;;;5043275;28;20466;-73
2021/04/29 06:07:30;;;;;;;44.60;31.60;;;9.80;99.90;;;;;;5042645;28;20517;-73
2021/04/29 06:09:56;;;;;;;41.67;32.40;;;9.80;99.90;;;;;;5041562;28;20495;-73
2021/04/29 06:12:22;;;;;;;38.63;32.43;;;9.90;99.90;;;;;;5042971;28;21001;-72
2021/04/29 06:14:48;;;;;;;37.30;32.07;;;9.90;99.90;;;;;;5043618;28;20832;-74
2021/04/29 06:17:15;;;;;;;40.23;34.00;;;10.00;99.90;;;;;;5042380;28;20463;-73
2021/04/29 06:19:42;;;;;;;39.13;33.77;;;10.00;99.90;;;;;;5043790;28;20474;-74
2021/04/29 06:22:08;;;;;;;42.00;34.87;;;10.10;99.90;;;;;;5043786;28;20554;-74
2021/04/29 06:24:36;;;;;;;43.90;33.33;;;10.10;99.90;;;;;;5040096;28;20462;-74
2021/04/29 06:27:03;;;;;;;42.97;36.57;;;10.20;99.90;;;;;;5041384;28;20464;-72
2021/04/29 06:29:29;;;;;;;43.87;38.50;;;10.20;99.90;;;;;;5042814;28;20475;-73
2021/04/29 06:31:57;;;;;;;52.50;36.20;;;10.30;99.90;;;;;;5042683;28;20548;-73
2021/04/29 06:34:23;;;;;;;46.17;37.17;;;10.30;99.90;;;;;;5043255;28;20470;-72
2021/04/29 06:36:50;;;;;;;60.37;41.03;;;10.40;99.90;;;;;;5043582;28;20667;-73
2021/04/29 06:39:19;;;;;;;49.57;40.60;;;10.30;99.90;;;;;;5041416;28;21025;-73
2021/04/29 06:41:45;;;;;;;50.33;42.73;;;10.40;99.90;;;;;;5041331;28;20590;-74
2021/04/29 06:44:12;;;;;;;50.83;40.10;;;10.50;99.90;;;;;;5041825;28;20984;-72
2021/04/29 06:46:39;;;;;;;53.00;42.37;;;10.80;99.90;;;;;;5040659;28;20982;-73
2021/04/29 06:49:06;;;;;;;70.60;49.67;;;10.90;99.90;;;;;;5040051;28;20490;-72
2021/04/29 06:51:33;;;;;;;62.43;45.80;;;10.80;99.90;;;;;;5042989;28;20509;-72
2021/04/29 06:54:00;;;;;;;58.07;42.63;;;10.90;99.90;;;;;;5040558;28;20474;-73
2021/04/29 06:56:27;;;;;;;59.47;46.77;;;10.80;99.90;;;;;;5040956;28;20805;-72
2021/04/29 06:58:53;;;;;;;64.80;45.60;;;11.10;99.90;;;;;;5040590;28;20525;-72
2021/04/29 07:01:19;;;;;;;74.47;52.50;;;11.10;99.90;;;;;;5040846;28;20983;-73
2021/04/29 07:03:46;;;;;;;69.13;50.37;;;10.90;99.90;;;;;;5042887;28;20460;-73
2021/04/29 07:06:12;;;;;;;60.77;42.80;;;11.20;99.90;;;;;;5042499;28;21022;-73
2021/04/29 07:08:39;;;;;;;61.77;46.70;;;11.10;99.90;;;;;;5038074;28;20499;-74
2021/04/29 07:11:06;;;;;;;65.50;45.93;;;10.90;99.90;;;;;;5039901;28;20467;-74
2021/04/29 07:13:32;;;;;;;62.03;46.80;;;11.00;99.90;;;;;;5039755;28;20848;-73
2021/04/29 07:15:59;;;;;;;58.83;44.27;;;11.10;99.90;;;;;;5039911;28;20540;-73
2021/04/29 07:18:25;;;;;;;74.00;47.63;;;11.00;99.90;;;;;;5037876;28;20472;-74
2021/04/29 07:20:54;;;;;;;72.67;48.77;;;11.10;99.90;;;;;;5038066;28;21041;-73
2021/04/29 07:23:21;;;;;;;67.77;48.80;;;11.10;99.90;;;;;;5037472;28;20484;-73
2021/04/29 07:25:48;;;;;;;64.40;45.83;;;11.10;99.90;;;;;;5038399;28;20464;-73
2021/04/29 07:28:15;;;;;;;69.77;48.97;;;11.20;99.90;;;;;;5040832;28;20594;-72
2021/04/29 07:30:42;;;;;;;64.27;44.87;;;11.20;99.90;;;;;;5038917;28;21109;-74
2021/04/29 07:33:11;;;;;;;69.67;50.43;;;11.40;99.90;;;;;;5039888;28;20600;-73
2021/04/29 07:35:37;;;;;;;47.80;37.73;;;11.50;99.90;;;;;;5039724;28;21051;-73
2021/04/29 07:38:04;;;;;;;63.63;47.87;;;11.50;99.90;;;;;;5039748;28;20583;-73
2021/04/29 07:40:31;;;;;;;69.43;49.37;;;11.60;99.90;;;;;;5042815;28;20480;-73
2021/04/29 07:42:58;;;;;;;57.13;47.10;;;11.60;99.90;;;;;;5042421;28;20468;-73
2021/04/29 07:45:26;;;;;;;60.07;45.60;;;11.80;99.90;;;;;;5038672;28;20515;-73
2021/04/29 07:47:52;;;;;;;64.63;48.83;;;11.80;99.90;;;;;;5040933;28;20492;-72
2021/04/29 07:50:20;;;;;;;56.00;45.17;;;11.80;99.90;;;;;;5039256;28;20482;-72
2021/04/29 07:52:46;;;;;;;54.00;41.73;;;11.80;99.90;;;;;;5042387;28;20839;-72
2021/04/29 07:55:14;;;;;;;58.70;45.67;;;11.60;99.90;;;;;;5043552;28;20550;-72
2021/04/29 07:57:41;;;;;;;56.80;45.53;;;11.80;99.90;;;;;;5041817;28;20525;-72
2021/04/29 08:00:10;;;;;;;58.50;46.60;;;11.90;99.90;;;;;;5041729;28;20471;-72
2021/04/29 08:02:38;;;;;;;61.23;46.63;;;11.90;99.90;;;;;;5043271;28;20464;-71
2021/04/29 08:05:05;;;;;;;52.73;43.00;;;11.90;99.90;;;;;;5043388;28;20475;-70
2021/04/29 08:07:31;;;;;;;60.33;44.40;;;11.80;99.90;;;;;;5043017;28;20483;-71
2021/04/29 08:09:58;;;;;;;57.47;45.43;;;11.60;99.90;;;;;;5042100;28;20934;-71
2021/04/29 08:12:24;;;;;;;55.70;46.10;;;11.80;99.90;;;;;;5040158;28;20472;-71
2021/04/29 08:14:52;;;;;;;57.83;47.67;;;11.90;99.90;;;;;;5042004;28;21058;-71
2021/04/29 08:17:19;;;;;;;55.30;45.67;;;12.10;99.90;;;;;;5038892;28;21089;-72
2021/04/29 08:19:47;;;;;;;58.60;45.87;;;12.20;99.90;;;;;;5044358;28;20472;-71
2021/04/29 08:22:13;;;;;;;53.60;40.47;;;12.40;99.90;;;;;;5042935;28;20459;-71
2021/04/29 08:24:39;;;;;;;53.10;43.23;;;12.50;99.90;;;;;;5042511;28;20472;-72
2021/04/29 08:27:06;;;;;;;54.43;44.67;;;12.60;99.90;;;;;;5042635;28;20468;-73
2021/04/29 08:29:32;;;;;;;57.90;45.00;;;13.10;99.90;;;;;;5041986;28;20467;-72
2021/04/29 08:31:59;;;;;;;53.43;43.43;;;13.10;99.90;;;;;;5042397;28;20478;-73
2021/04/29 08:34:26;;;;;;;50.37;42.60;;;13.30;99.90;;;;;;5043450;28;20514;-72
2021/04/29 08:36:53;;;;;;;44.50;39.43;;;13.40;99.90;;;;;;5040898;28;20475;-71
2021/04/29 08:39:19;;;;;;;55.23;42.47;;;13.60;99.90;;;;;;5042174;28;20506;-71
2021/04/29 08:41:46;;;;;;;47.77;41.87;;;13.40;99.90;;;;;;5042807;28;20460;-72
2021/04/29 08:44:12;;;;;;;44.87;39.70;;;13.50;99.90;;;;;;5040952;28;20554;-72
2021/04/29 08:46:39;;;;;;;49.13;41.67;;;13.20;99.90;;;;;;5042423;28;20460;-72
2021/04/29 08:49:05;;;;;;;59.13;42.90;;;13.10;99.90;;;;;;5043370;28;20528;-71
2021/04/29 08:51:32;;;;;;;55.37;41.27;;;12.80;99.90;;;;;;5041090;28;20465;-72
2021/04/29 08:54:00;;;;;;;50.80;44.03;;;12.70;99.90;;;;;;5041270;28;20521;-72
2021/04/29 08:56:27;;;;;;;48.73;43.37;;;12.90;99.90;;;;;;5035650;28;20844;-72
2021/04/29 08:58:54;;;;;;;52.30;41.30;;;13.10;99.90;;;;;;5037028;28;20499;-72
2021/04/29 09:01:21;;;;;;;40.93;36.50;;;13.20;99.90;;;;;;5040395;28;20469;-72
2021/04/29 09:03:48;;;;;;;47.57;39.23;;;13.60;99.90;;;;;;5042000;28;20474;-72
2021/04/29 09:06:15;;;;;;;45.10;39.53;;;13.40;99.90;;;;;;5041241;28;20988;-71
2021/04/29 09:08:43;;;;;;;43.57;38.17;;;13.60;99.90;;;;;;5041757;28;20530;-72
2021/04/29 09:11:12;;;;;;;42.07;37.67;;;13.60;99.90;;;;;;5041961;28;20467;-72
2021/04/29 09:13:39;;;;;;;42.93;38.30;;;13.40;99.90;;;;;;5044336;28;20466;-73
2021/04/29 09:16:08;;;;;;;48.13;39.10;;;13.30;99.90;;;;;;5047421;28;20893;-72
2021/04/29 09:18:36;;;;;;;40.40;34.47;;;13.30;99.90;;;;;;5043871;28;20464;-72
2021/04/29 09:21:06;;;;;;;42.53;37.90;;;13.40;99.90;;;;;;5045453;28;20467;-72
2021/04/29 09:23:35;;;;;;;42.33;37.83;;;13.50;99.90;;;;;;5043260;28;20463;-72
2021/04/29 09:26:05;;;;;;;40.83;33.17;;;13.60;99.90;;;;;;5047130;28;20494;-72
2021/04/29 09:28:38;;;;;;;42.93;38.40;;;13.40;99.90;;;;;;5047162;28;20998;-72
2021/04/29 09:31:06;;;;;;;33.40;29.90;;;13.90;99.90;;;;;;5045854;28;20900;-72
2021/04/29 09:33:35;;;;;;;33.57;30.27;;;14.30;99.90;;;;;;5045097;28;20881;-72
2021/04/29 09:36:02;;;;;;;36.40;33.00;;;14.50;99.90;;;;;;5046205;28;20830;-71
2021/04/29 09:38:34;;;;;;;37.50;33.90;;;14.50;99.90;;;;;;5047021;28;20467;-71
2021/04/29 09:41:01;;;;;;;35.13;31.67;;;15.00;99.90;;;;;;5047602;28;20831;-74
2021/04/29 09:43:28;;;;;;;35.30;31.90;;;15.10;99.90;;;;;;5045856;28;20840;-71
2021/04/29 09:45:57;;;;;;;35.53;32.00;;;14.30;99.90;;;;;;5041680;28;20472;-72
2021/04/29 09:48:37;;;;;;;36.17;32.70;;;13.80;99.90;;;;;;5042378;28;20491;-72
2021/04/29 09:51:06;;;;;;;36.77;33.17;;;13.30;99.90;;;;;;5045447;28;20467;-72
2021/04/29 09:53:43;;;;;;;35.20;31.80;;;13.00;99.90;;;;;;5047169;28;20467;-72
2021/04/29 09:56:12;;;;;;;33.97;30.40;;;13.30;99.90;;;;;;5046571;28;20465;-72
2021/04/29 09:58:43;;;;;;;36.17;32.00;;;13.10;99.90;;;;;;5045149;28;20464;-71
2021/04/29 10:01:11;;;;;;;34.20;31.10;;;14.10;99.90;;;;;;5042411;28;20464;-71
2021/04/29 10:03:38;;;;;;;35.30;31.90;;;14.40;99.90;;;;;;5040813;28;20465;-73
2021/04/29 10:06:05;;;;;;;33.67;30.07;;;14.70;99.90;;;;;;5045609;28;20579;-72
2021/04/29 10:08:34;;;;;;;35.37;31.93;;;15.40;99.90;;;;;;5043694;28;20495;-71
2021/04/29 10:11:03;;;;;;;31.03;28.10;;;15.90;99.90;;;;;;5044427;28;20841;-72
2021/04/29 10:13:31;;;;;;;33.33;30.53;;;16.30;99.90;;;;;;5044668;28;20969;-71
2021/04/29 10:15:58;;;;;;;32.00;29.13;;;16.30;99.90;;;;;;5044893;28;20456;-72
2021/04/29 10:18:27;;;;;;;30.43;27.50;;;15.40;99.90;;;;;;5044122;28;20459;-72
2021/04/29 10:20:56;;;;;;;30.63;27.73;;;15.30;99.90;;;;;;5044727;28;20456;-72
2021/04/29 10:23:23;;;;;;;31.63;28.77;;;14.80;99.90;;;;;;5045545;28;20942;-72
2021/04/29 10:25:51;;;;;;;31.63;28.63;;;14.70;99.90;;;;;;5045597;28;20460;-72
2021/04/29 10:28:33;;;;;;;29.97;27.07;;;14.80;99.90;;;;;;5044888;28;20971;-72
2021/04/29 10:30:59;;;;;;;34.93;29.50;;;15.00;99.90;;;;;;5045056;28;20556;-72
2021/04/29 10:33:35;;;;;;;33.00;29.87;;;14.40;99.90;;;;;;5036223;28;20962;-72
2021/04/29 10:36:02;;;;;;;31.47;28.47;;;14.40;99.90;;;;;;5043405;28;20464;-71
2021/04/29 10:38:32;;;;;;;34.63;31.30;;;14.20;99.90;;;;;;5044186;28;20464;-72
2021/04/29 10:41:00;;;;;;;31.23;28.20;;;13.80;99.90;;;;;;5044242;28;20467;-72
2021/04/29 10:43:37;;;;;;;33.67;30.33;;;13.00;99.90;;;;;;5044783;28;20464;-72
2021/04/29 10:46:07;;;;;;;36.23;28.80;;;12.70;99.90;;;;;;5045241;28;20467;-72
2021/04/29 10:48:49;;;;;;;32.33;29.30;;;12.50;99.90;;;;;;5045388;28;20492;-75
2021/04/29 10:51:16;;;;;;;40.93;33.20;;;11.40;99.90;;;;;;5045976;28;20476;-71
2021/04/29 10:53:42;;;;;;;36.17;32.77;;;10.30;99.90;;;;;;5044418;28;20469;-71
2021/04/29 10:56:12;;;;;;;34.87;31.80;;;10.00;99.90;;;;;;5043095;28;20897;-72
2021/04/29 10:58:40;;;;;;;34.80;31.53;;;10.20;99.90;;;;;;5043628;28;20455;-72
2021/04/29 11:01:11;;;;;;;32.40;29.00;;;10.30;99.90;;;;;;5046047;28;20455;-72
2021/04/29 11:03:40;;;;;;;28.87;26.13;;;10.90;99.90;;;;;;5044950;28;20467;-73
2021/04/29 11:06:09;;;;;;;27.37;24.97;;;11.40;99.90;;;;;;5041898;28;20550;-73
2021/04/29 11:08:39;;;;;;;28.67;26.00;;;12.30;99.90;;;;;;5037368;28;20582;-72
2021/04/29 11:11:05;;;;;;;27.90;25.13;;;13.10;99.90;;;;;;5038131;28;20463;-73
2021/04/29 11:13:32;;;;;;;26.73;24.53;;;12.90;99.90;;;;;;5044798;28;20994;-74
2021/04/29 11:16:01;;;;;;;26.97;24.43;;;13.10;99.90;;;;;;5039166;28;20471;-74
2021/04/29 11:18:28;;;;;;;25.30;23.00;;;12.60;99.90;;;;;;5042083;28;20467;-75
2021/04/29 11:20:57;;;;;;;25.53;23.03;;;12.00;99.90;;;;;;5043812;28;20605;-73
2021/04/29 11:23:27;;;;;;;26.10;24.07;;;11.80;99.90;;;;;;5042441;28;20468;-73
2021/04/29 11:26:04;;;;;;;22.47;20.53;;;11.90;99.90;;;;;;5041882;28;20467;-73
2021/04/29 11:28:32;;;;;;;25.00;23.00;;;11.80;99.90;;;;;;5040896;28;20479;-75
2021/04/29 11:30:59;;;;;;;23.97;22.13;;;12.00;99.90;;;;;;5043547;28;20472;-72
2021/04/29 11:33:32;;;;;;;24.10;22.20;;;12.00;99.90;;;;;;5043644;28;20486;-74
2021/04/29 11:35:59;;;;;;;24.73;22.67;;;12.50;99.90;;;;;;5043115;28;20464;-75
2021/04/29 11:38:26;;;;;;;23.00;21.20;;;12.60;99.90;;;;;;5043571;28;20479;-73
2021/04/29 11:40:53;;;;;;;23.77;21.93;;;12.60;99.90;;;;;;5040197;28;20464;-73
2021/04/29 11:43:21;;;;;;;22.83;20.83;;;12.40;99.90;;;;;;5041691;28;21142;-74
2021/04/29 11:45:50;;;;;;;23.20;21.33;;;12.20;99.90;;;;;;5040890;28;20486;-74
2021/04/29 11:48:16;;;;;;;22.93;21.03;;;11.60;99.90;;;;;;5043503;28;20478;-74
2021/04/29 11:50:48;;;;;;;23.33;21.30;;;11.30;99.90;;;;;;5043389;28;20475;-75
2021/04/29 11:53:17;;;;;;;24.13;22.20;;;11.10;99.90;;;;;;5041847;28;20467;-74
2021/04/29 11:55:45;;;;;;;24.53;22.53;;;11.10;99.90;;;;;;5044969;28;20529;-72
2021/04/29 11:58:13;;;;;;;23.10;21.50;;;10.90;99.90;;;;;;5042161;28;20535;-72
2021/04/29 12:00:42;;;;;;;22.80;20.90;;;10.80;99.90;;;;;;5042890;28;20464;-72
2021/04/29 12:03:10;;;;;;;25.43;22.90;;;10.90;99.90;;;;;;5042406;28;20468;-75
2021/04/29 12:05:38;;;;;;;22.67;20.97;;;10.90;99.90;;;;;;5042466;28;20536;-73
2021/04/29 12:08:10;;;;;;;23.63;21.80;;;11.00;99.90;;;;;;5040758;28;20566;-72
2021/04/29 12:10:51;;;;;;;21.23;19.83;;;11.20;99.90;;;;;;5042841;28;20494;-75
2021/04/29 12:13:28;;;;;;;22.13;20.33;;;11.10;99.90;;;;;;5043182;28;20459;-72
2021/04/29 12:15:56;;;;;;;22.33;20.43;;;10.80;99.90;;;;;;5042752;28;20802;-73
2021/04/29 12:18:23;;;;;;;22.60;20.57;;;10.40;99.90;;;;;;5042847;28;21146;-73
2021/04/29 12:20:49;;;;;;;23.20;20.73;;;10.10;99.90;;;;;;5043821;28;20471;-73
2021/04/29 12:23:16;;;;;;;21.60;19.67;;;9.90;99.90;;;;;;5044377;28;20473;-73
2021/04/29 12:25:42;;;;;;;23.70;21.60;;;10.10;99.90;;;;;;5042418;28;20467;-73
2021/04/29 12:28:18;;;;;;;23.63;21.60;;;10.60;99.90;;;;;;5042686;28;20517;-72
2021/04/29 12:30:45;;;;;;;24.20;21.70;;;11.40;99.90;;;;;;5042315;28;20466;-73